Butters, North Carolina
Current Conditions -  °F | °C
As of 2:55 AM on Friday 24 Oct 2014 (Local Time) from KEYF Reporting Station
Clear Clear  
Wind Chill: 52°   Ceiling: Unl
Heat Index: 52°   Visibility: 10mi
Dew Point: 45°   Wind: 3mph
Humidity: 76%   Direction: 330°NNW
Pressure: 30.01"   Gusts: NA
Location:  34.5603°N, 78.7711°W
Report Text: KEYF 240655Z AUTO 33003KT 10SM CLR 11/07 A3001 RMK AO2 T01120071
Loading
Personal Weather Stations






























Interactive Weather Map
Tropical Storm Tracking
New forecast layout! Learn more

10-Day Weather Forecast

Advertisements
Track Severe Weather on mobile